createdAt,value
2019-02-12T00:02:30.094Z,66.21
2019-02-12T00:05:00.445Z,66.24
2019-02-12T00:07:30.889Z,66.36
2019-02-12T00:10:01.425Z,66.55
2019-02-12T00:12:31.911Z,66.54
2019-02-12T00:15:02.336Z,66.58
2019-02-12T00:17:32.791Z,66.48
2019-02-12T00:20:03.729Z,66.13
2019-02-12T00:22:34.559Z,66.10
2019-02-12T00:25:04.929Z,65.88
2019-02-12T00:27:35.361Z,65.46
2019-02-12T00:30:06.114Z,64.92
2019-02-12T00:32:37.304Z,64.82
2019-02-12T00:35:07.989Z,64.94
2019-02-12T00:37:38.518Z,65.23
2019-02-12T00:40:09.203Z,65.22
2019-02-12T00:42:39.645Z,65.48
2019-02-12T00:45:10.276Z,65.38
2019-02-12T00:47:40.638Z,65.29
2019-02-12T00:50:11.197Z,65.52
2019-02-12T00:52:41.503Z,65.65
2019-02-12T00:55:11.851Z,65.65
2019-02-12T00:57:42.540Z,65.84
2019-02-12T01:00:13.869Z,65.95
2019-02-12T01:02:44.467Z,65.98
2019-02-12T01:05:15.049Z,65.90
2019-02-12T01:07:45.578Z,66.03
2019-02-12T01:10:15.894Z,66.07
2019-02-12T01:12:46.218Z,65.71
2019-02-12T01:15:16.619Z,65.66
2019-02-12T01:17:46.963Z,65.33
2019-02-12T01:20:17.451Z,65.73
2019-02-12T01:22:47.786Z,66.75
2019-02-12T01:25:18.159Z,66.57
2019-02-12T01:27:49.247Z,66.20
2019-02-12T01:30:20.089Z,66.82
2019-02-12T01:32:50.452Z,66.28
2019-02-12T01:35:20.858Z,65.78
2019-02-12T01:37:51.148Z,65.93
2019-02-12T01:40:21.827Z,64.91
2019-02-12T01:42:52.202Z,63.83
2019-02-12T01:45:22.650Z,64.45
2019-02-12T01:47:52.948Z,64.56
2019-02-12T01:50:23.804Z,63.92
2019-02-12T01:52:54.210Z,64.01
2019-02-12T01:55:24.515Z,64.36
2019-02-12T01:57:55.112Z,64.17
2019-02-12T02:00:25.961Z,63.95
2019-02-12T02:02:56.366Z,63.80
2019-02-12T02:05:27.532Z,64.06
2019-02-12T02:07:57.900Z,64.24
2019-02-12T02:10:28.346Z,64.18
2019-02-12T02:12:58.728Z,63.89
2019-02-12T02:15:29.238Z,61.66
2019-02-12T02:17:59.610Z,60.69
2019-02-12T02:20:30.319Z,60.16
2019-02-12T02:23:00.708Z,59.38
2019-02-12T02:25:31.087Z,58.81
2019-02-12T02:28:01.925Z,59.18
2019-02-12T02:30:32.444Z,58.95
2019-02-12T02:33:02.942Z,58.36
2019-02-12T02:35:33.334Z,58.71
2019-02-12T02:38:03.671Z,58.96
2019-02-12T02:40:34.051Z,59.41
2019-02-12T02:43:05.933Z,59.45
2019-02-12T02:45:36.379Z,59.26
2019-02-12T02:48:06.903Z,59.05
2019-02-12T02:50:37.669Z,59.43
2019-02-12T02:53:08.131Z,58.92
2019-02-12T02:55:38.590Z,59.13
2019-02-12T02:58:09.005Z,58.58
2019-02-12T03:00:39.380Z,57.57
2019-02-12T03:03:09.705Z,57.37
2019-02-12T03:05:40.083Z,57.21
2019-02-12T03:08:10.737Z,55.36
2019-02-12T03:10:42.374Z,54.82
2019-02-12T03:13:13.190Z,55.51
2019-02-12T03:15:43.810Z,55.99
2019-02-12T03:18:14.223Z,56.14
2019-02-12T03:20:45.636Z,56.13
2019-02-12T03:23:17.281Z,56.29
2019-02-12T03:25:47.811Z,56.16
2019-02-12T03:28:18.544Z,56.51
2019-02-12T03:30:48.900Z,56.93
2019-02-12T03:33:19.287Z,56.43
2019-02-12T03:35:50.139Z,56.80
2019-02-12T03:38:20.594Z,56.99
2019-02-12T03:40:50.990Z,57.70
2019-02-12T03:43:21.909Z,59.66
2019-02-12T03:45:52.313Z,60.96
2019-02-12T03:48:22.835Z,62.73
2019-02-12T03:50:53.639Z,63.30
2019-02-12T03:53:24.578Z,63.83
2019-02-12T03:55:55.025Z,63.97
2019-02-12T03:58:25.452Z,64.68
2019-02-12T04:00:55.861Z,64.63
2019-02-12T04:03:26.696Z,65.35
2019-02-12T04:05:57.190Z,65.54
2019-02-12T04:08:27.673Z,65.45
2019-02-12T04:10:58.065Z,65.13
2019-02-12T04:13:32.563Z,64.35
2019-02-12T04:16:00.554Z,63.62
2019-02-12T04:18:30.921Z,63.37
2019-02-12T04:21:01.367Z,63.10
2019-02-12T04:23:31.807Z,62.75
2019-02-12T04:26:02.148Z,62.65
2019-02-12T04:28:37.284Z,62.68
2019-02-12T04:31:07.684Z,62.68
2019-02-12T04:33:38.043Z,61.96
2019-02-12T04:36:09.792Z,61.30
2019-02-12T04:38:40.509Z,60.65
2019-02-12T04:41:10.934Z,60.40
2019-02-12T04:43:41.592Z,59.68
2019-02-12T04:46:12.115Z,59.19
2019-02-12T04:48:42.528Z,58.73
2019-02-12T04:51:12.909Z,58.45
2019-02-12T04:53:43.206Z,58.50
2019-02-12T04:56:13.585Z,58.71
2019-02-12T04:58:44.087Z,58.52
2019-02-12T05:01:14.907Z,58.37
2019-02-12T05:03:45.324Z,58.14
2019-02-12T05:06:15.756Z,58.25
2019-02-12T05:09:17.554Z,58.39
2019-02-12T05:11:59.448Z,58.70
2019-02-12T05:14:30.198Z,58.69
2019-02-12T05:17:00.525Z,59.12
2019-02-12T05:19:30.968Z,59.21
2019-02-12T05:22:01.371Z,59.36
2019-02-12T05:24:31.776Z,59.55
2019-02-12T05:27:02.446Z,59.98
2019-02-12T05:29:36.917Z,60.39
2019-02-12T05:32:07.284Z,60.97
2019-02-12T05:34:38.090Z,62.45
2019-02-12T05:37:08.497Z,63.95
2019-02-12T05:39:38.865Z,65.40
2019-02-12T05:42:09.733Z,67.43
2019-02-12T05:44:40.525Z,68.58
2019-02-12T05:47:10.936Z,69.27
2019-02-12T05:49:41.234Z,69.21
2019-02-12T05:52:11.568Z,69.24
2019-02-12T05:54:42.027Z,69.40
2019-02-12T05:57:12.629Z,68.83
2019-02-12T05:59:43.130Z,68.80
2019-02-12T06:02:13.624Z,71.38
2019-02-12T06:04:43.928Z,73.95
2019-02-12T06:07:14.395Z,75.69
2019-02-12T06:09:44.765Z,76.64
2019-02-12T06:12:15.125Z,77.52
2019-02-12T06:14:45.862Z,78.92
2019-02-12T06:17:16.225Z,80.47
2019-02-12T06:19:46.736Z,81.41
2019-02-12T06:22:17.115Z,82.17
2019-02-12T06:24:47.621Z,82.89
2019-02-12T06:27:18.125Z,83.21
2019-02-12T06:29:49.848Z,83.33
2019-02-12T06:32:20.285Z,83.43
2019-02-12T06:34:50.707Z,83.67
2019-02-12T06:37:21.127Z,83.69
2019-02-12T06:39:51.513Z,83.58
2019-02-12T06:42:21.926Z,83.48
2019-02-12T06:44:52.481Z,83.45
2019-02-12T06:47:25.154Z,83.59
2019-02-12T06:49:55.515Z,83.64
2019-02-12T06:52:25.999Z,83.63
2019-02-12T06:54:56.556Z,83.61
2019-02-12T06:57:28.250Z,83.52
2019-02-12T06:59:58.734Z,83.38
2019-02-12T07:03:03.626Z,83.37
2019-02-12T07:05:33.995Z,83.43
2019-02-12T07:08:32.483Z,83.02
2019-02-12T07:11:08.682Z,83.01
2019-02-12T07:13:44.750Z,82.99
2019-02-12T07:16:58.489Z,82.83
2019-02-12T07:20:11.342Z,82.73
2019-02-12T07:33:55.263Z,82.28
2019-02-12T07:37:01.392Z,81.95
2019-02-12T07:40:00.386Z,81.41
2019-02-12T07:43:06.081Z,80.95
2019-02-12T07:45:55.091Z,80.50
2019-02-12T07:48:50.862Z,80.17
2019-02-12T07:51:41.976Z,79.04
2019-02-12T07:54:30.774Z,78.71
2019-02-12T07:57:53.201Z,78.90
2019-02-12T08:00:59.285Z,78.53
2019-02-12T08:03:54.545Z,78.33
2019-02-12T08:07:26.122Z,78.87
2019-02-12T08:10:36.840Z,78.70
2019-02-12T08:13:43.219Z,78.94
2019-02-12T08:16:57.676Z,78.92
2019-02-12T08:19:55.385Z,78.97
2019-02-12T08:23:01.987Z,78.99
2019-02-12T08:26:14.447Z,78.29
2019-02-12T08:29:22.400Z,77.83
2019-02-12T08:32:29.903Z,77.40
2019-02-12T08:35:19.133Z,77.48
2019-02-12T08:38:41.556Z,77.77
2019-02-12T08:41:29.865Z,77.59
2019-02-12T08:44:16.276Z,78.08
2019-02-12T08:47:51.100Z,78.31
2019-02-12T08:50:59.441Z,78.31
2019-02-12T08:54:15.888Z,78.31
2019-02-12T08:57:22.697Z,78.04
2019-02-12T09:00:36.593Z,78.01
2019-02-12T09:03:37.449Z,77.36
2019-02-12T09:07:07.077Z,77.18
2019-02-12T09:10:25.958Z,76.50
2019-02-12T09:13:27.528Z,75.51
2019-02-12T09:16:55.396Z,73.79
2019-02-12T09:20:09.182Z,72.88
2019-02-12T09:23:18.042Z,72.54
2019-02-12T09:26:19.010Z,72.42
2019-02-12T09:29:36.060Z,71.87
2019-02-12T09:32:48.860Z,72.23
2019-02-12T09:35:39.963Z,71.59
2019-02-12T09:38:44.878Z,72.29
2019-02-12T09:41:29.083Z,71.41
2019-02-12T09:44:28.810Z,70.70
2019-02-12T09:47:34.694Z,71.05
2019-02-12T09:50:31.661Z,72.06
2019-02-12T09:53:32.632Z,71.04
2019-02-12T09:56:31.217Z,71.16
2019-02-12T09:59:26.696Z,68.86
2019-02-12T10:02:26.584Z,68.60
2019-02-12T10:05:51.386Z,69.17
2019-02-12T10:09:09.226Z,68.74
2019-02-12T10:12:22.080Z,68.39
2019-02-12T10:15:44.733Z,67.85
2019-02-12T10:19:07.442Z,67.03
2019-02-12T10:22:03.085Z,66.29
2019-02-12T10:25:00.106Z,66.94
2019-02-12T10:28:21.217Z,66.87
2019-02-12T10:31:22.317Z,66.15
2019-02-12T10:33:52.677Z,66.37
2019-02-12T10:36:23.606Z,65.21
2019-02-12T10:38:53.910Z,66.29
2019-02-12T10:41:24.248Z,66.88
2019-02-12T10:43:54.676Z,66.33
2019-02-12T10:46:25.052Z,65.40
2019-02-12T10:48:55.372Z,64.14
2019-02-12T10:51:25.821Z,65.41
2019-02-12T10:53:56.161Z,63.97
2019-02-12T10:56:26.565Z,63.41
2019-02-12T10:58:57.234Z,63.99
2019-02-12T11:01:27.650Z,64.74
2019-02-12T11:03:57.993Z,65.79
2019-02-12T11:06:28.398Z,66.70
2019-02-12T11:08:59.190Z,65.79
2019-02-12T11:11:29.513Z,66.26
2019-02-12T11:14:00.125Z,65.03
2019-02-12T11:16:34.684Z,65.37
2019-02-12T11:19:05.707Z,66.69
2019-02-12T11:21:36.469Z,66.54
2019-02-12T11:24:06.938Z,67.74
2019-02-12T11:26:37.363Z,69.86
2019-02-12T11:29:07.865Z,71.83
2019-02-12T11:31:38.241Z,72.58
2019-02-12T11:34:09.073Z,73.14
2019-02-12T11:36:39.515Z,73.00
2019-02-12T11:39:09.814Z,73.22
2019-02-12T11:41:48.179Z,73.37
2019-02-12T11:44:18.147Z,74.03
2019-02-12T11:46:48.650Z,73.87
2019-02-12T11:49:19.064Z,75.64
2019-02-12T11:51:50.166Z,75.19
2019-02-12T11:54:21.060Z,76.05
2019-02-12T11:56:51.491Z,76.99
2019-02-12T11:59:21.996Z,78.39
2019-02-12T12:01:52.455Z,78.76
2019-02-12T12:04:22.774Z,79.20
2019-02-12T12:06:53.240Z,79.56
2019-02-12T12:09:26.059Z,79.25
2019-02-12T12:11:56.587Z,79.32
2019-02-12T12:14:26.979Z,79.03
2019-02-12T12:16:57.382Z,78.97
2019-02-12T12:19:28.300Z,78.73
2019-02-12T12:21:58.788Z,78.23
2019-02-12T12:24:29.666Z,77.19
2019-02-12T12:27:01.870Z,76.89
2019-02-12T12:29:32.492Z,75.26
2019-02-12T12:32:02.835Z,73.93
2019-02-12T12:34:33.262Z,71.11
2019-02-12T12:37:03.644Z,70.03
2019-02-12T12:39:34.113Z,68.33
2019-02-12T12:42:04.512Z,67.95
2019-02-12T12:44:34.893Z,66.64
2019-02-12T12:47:05.445Z,66.20
2019-02-12T12:49:37.776Z,65.39
2019-02-12T12:52:08.150Z,65.33
2019-02-12T12:54:38.498Z,65.16
2019-02-12T12:57:08.907Z,66.36
2019-02-12T13:00:10.891Z,65.66
2019-02-12T13:02:41.330Z,66.38
2019-02-12T13:05:11.839Z,65.08
2019-02-12T13:07:42.207Z,64.55
2019-02-12T13:10:14.422Z,63.90
2019-02-12T13:12:46.814Z,62.81
2019-02-12T13:15:18.468Z,62.78
2019-02-12T13:17:55.009Z,61.63
2019-02-12T13:20:25.600Z,61.49
2019-02-12T13:22:56.001Z,60.17
2019-02-12T13:25:26.705Z,57.83
2019-02-12T13:27:59.252Z,58.05
2019-02-12T13:30:29.651Z,58.90
2019-02-12T13:33:00.011Z,59.77
2019-02-12T13:35:30.651Z,56.65
2019-02-12T13:38:01.123Z,56.97
2019-02-12T13:40:31.489Z,57.50
2019-02-12T13:43:01.959Z,56.19
2019-02-12T13:45:32.933Z,55.72
2019-02-12T13:48:03.316Z,55.86
2019-02-12T13:50:34.613Z,55.80
2019-02-12T13:53:05.014Z,53.89
2019-02-12T13:55:35.415Z,55.11
2019-02-12T13:58:05.729Z,55.28
2019-02-12T14:00:36.746Z,53.72
2019-02-12T14:03:07.529Z,55.10
2019-02-12T14:05:37.855Z,54.19
2019-02-12T14:08:08.262Z,54.49
2019-02-12T14:10:38.669Z,53.82
2019-02-12T14:13:09.410Z,54.98
2019-02-12T14:15:41.210Z,54.86
2019-02-12T14:18:18.798Z,55.19
2019-02-12T14:20:49.183Z,54.44
2019-02-12T14:23:19.546Z,54.85
2019-02-12T14:25:49.978Z,55.48
2019-02-12T14:28:20.267Z,54.24
2019-02-12T14:30:50.781Z,55.23
2019-02-12T14:33:21.429Z,55.48
2019-02-12T14:35:52.177Z,55.83
2019-02-12T14:38:22.575Z,55.50
2019-02-12T14:40:53.042Z,55.36
2019-02-12T14:43:23.433Z,55.85
2019-02-12T14:45:53.877Z,55.85
2019-02-12T14:48:24.276Z,56.05
2019-02-12T14:50:54.720Z,56.30
2019-02-12T14:53:25.823Z,56.61
2019-02-12T14:55:56.326Z,57.16
2019-02-12T14:58:34.982Z,57.88
2019-02-12T15:01:06.454Z,58.49
2019-02-12T15:03:37.370Z,59.19
2019-02-12T15:06:10.029Z,59.38
2019-02-12T15:08:40.485Z,60.01
2019-02-12T15:11:11.357Z,60.11
2019-02-12T15:13:41.826Z,60.21
2019-02-12T15:16:12.148Z,60.52
2019-02-12T15:18:42.541Z,60.29
2019-02-12T15:21:15.138Z,60.20
2019-02-12T15:23:47.133Z,59.92
2019-02-12T15:26:19.402Z,59.46
2019-02-12T15:28:51.075Z,60.07
2019-02-12T15:31:21.647Z,59.90
2019-02-12T15:33:52.054Z,60.61
2019-02-12T15:36:24.110Z,60.60
2019-02-12T15:38:57.215Z,60.90
2019-02-12T15:41:27.949Z,61.40
2019-02-12T15:43:58.744Z,61.60
2019-02-12T15:46:29.715Z,62.07
2019-02-12T15:49:00.151Z,62.23
2019-02-12T15:51:30.581Z,62.43
2019-02-12T15:54:01.479Z,63.01
2019-02-12T15:56:32.922Z,62.86
2019-02-12T15:59:03.274Z,62.73
2019-02-12T16:01:33.674Z,63.22
2019-02-12T16:04:04.162Z,63.50
2019-02-12T16:06:34.516Z,63.46
2019-02-12T16:09:05.941Z,63.36
2019-02-12T16:11:36.331Z,63.54
2019-02-12T16:14:10.353Z,64.11
2019-02-12T16:16:40.827Z,64.16
2019-02-12T16:19:11.193Z,64.12
2019-02-12T16:21:41.794Z,64.08
2019-02-12T16:24:12.362Z,64.38
2019-02-12T16:26:42.925Z,64.25
2019-02-12T16:29:13.433Z,64.65
2019-02-12T16:31:45.571Z,64.89
2019-02-12T16:34:16.858Z,64.97
2019-02-12T16:36:47.270Z,65.18
2019-02-12T16:39:21.960Z,65.52
2019-02-12T16:41:53.084Z,65.80
2019-02-12T16:44:24.067Z,66.60
2019-02-12T16:46:54.454Z,67.02
2019-02-12T16:49:30.315Z,66.86
2019-02-12T16:52:00.960Z,66.99
2019-02-12T16:54:31.429Z,67.07
2019-02-12T16:57:02.110Z,67.22
2019-02-12T16:59:33.038Z,67.01
2019-02-12T17:02:04.867Z,66.79
2019-02-12T17:04:35.632Z,66.61
2019-02-12T17:07:08.140Z,66.29
2019-02-12T17:09:38.513Z,66.18
2019-02-12T17:12:11.886Z,65.96
2019-02-12T17:14:43.460Z,65.62
2019-02-12T17:17:17.301Z,65.43
2019-02-12T17:19:47.740Z,65.10
2019-02-12T17:22:18.194Z,65.00
2019-02-12T17:24:50.339Z,64.99
2019-02-12T17:27:20.863Z,64.92
2019-02-12T17:29:55.963Z,65.19
2019-02-12T17:32:26.464Z,65.01
2019-02-12T17:35:01.502Z,64.77
2019-02-12T17:37:29.482Z,64.58
2019-02-12T17:39:59.801Z,64.49
2019-02-12T17:42:30.234Z,64.64
2019-02-12T17:45:00.634Z,64.69
2019-02-12T17:47:30.904Z,64.89
2019-02-12T17:50:01.289Z,64.86
2019-02-12T17:52:31.693Z,65.03
2019-02-12T17:55:02.138Z,64.93
2019-02-12T17:57:35.033Z,64.82
2019-02-12T18:00:09.873Z,64.52
2019-02-12T18:02:41.658Z,64.47
2019-02-12T18:05:12.514Z,64.32
2019-02-12T18:07:43.296Z,64.33
2019-02-12T18:10:13.939Z,64.34
2019-02-12T18:12:44.429Z,64.64
2019-02-12T18:15:15.176Z,64.69
2019-02-12T18:17:46.040Z,64.83
2019-02-12T18:20:16.590Z,64.90
2019-02-12T18:22:47.852Z,65.14
2019-02-12T18:25:18.514Z,65.46
2019-02-12T18:27:49.882Z,65.57
2019-02-12T18:30:24.604Z,65.84
2019-02-12T18:32:57.347Z,66.23
2019-02-12T18:35:30.665Z,66.59
2019-02-12T18:38:01.382Z,66.47
2019-02-12T18:40:32.155Z,66.58
2019-02-12T18:43:02.671Z,66.90
2019-02-12T18:45:33.294Z,67.16
2019-02-12T18:48:04.000Z,67.30
2019-02-12T18:50:34.511Z,67.48
2019-02-12T18:53:05.143Z,67.44
2019-02-12T18:55:35.703Z,67.73
2019-02-12T18:58:06.701Z,67.94
2019-02-12T19:00:37.363Z,67.90
2019-02-12T19:03:08.041Z,67.96
2019-02-12T19:05:38.723Z,68.24
2019-02-12T19:08:09.647Z,68.33
2019-02-12T19:10:40.328Z,68.32
2019-02-12T19:13:11.100Z,68.60
2019-02-12T19:15:41.973Z,68.70
2019-02-12T19:18:15.277Z,68.95
2019-02-12T19:20:47.860Z,69.27
2019-02-12T19:23:18.766Z,69.28
2019-02-12T19:25:49.458Z,69.65
2019-02-12T19:28:20.214Z,69.95
2019-02-12T19:30:51.823Z,70.14
2019-02-12T19:33:23.233Z,70.37
2019-02-12T19:35:55.578Z,70.29
2019-02-12T19:38:27.414Z,70.78
2019-02-12T19:40:58.096Z,70.54
2019-02-12T19:43:29.249Z,70.37
2019-02-12T19:46:02.930Z,70.08
2019-02-12T19:48:33.703Z,69.71
2019-02-12T19:51:04.651Z,69.50
2019-02-12T19:53:35.696Z,69.32
2019-02-12T19:56:06.559Z,68.98
2019-02-12T19:58:39.065Z,68.94
2019-02-12T20:01:09.849Z,68.48
2019-02-12T20:03:40.861Z,68.47
2019-02-12T20:06:15.311Z,68.38
2019-02-12T20:08:47.101Z,68.40
2019-02-12T20:11:19.340Z,68.34
2019-02-12T20:13:50.442Z,68.44
2019-02-12T20:16:25.671Z,68.59
2019-02-12T20:19:00.525Z,68.49
2019-02-12T20:21:37.295Z,68.90
2019-02-12T20:24:14.818Z,68.88
2019-02-12T20:26:46.713Z,68.75
2019-02-12T20:29:18.577Z,68.74
2019-02-12T20:31:53.877Z,68.73
2019-02-12T20:34:27.123Z,68.81
2019-02-12T20:36:59.534Z,68.76
2019-02-12T20:39:31.834Z,68.90
2019-02-12T20:42:07.157Z,68.67
2019-02-12T20:44:39.184Z,68.57
2019-02-12T20:47:29.585Z,68.58
2019-02-12T20:50:03.901Z,68.69
2019-02-12T20:52:39.341Z,68.62
2019-02-12T20:55:12.663Z,68.95
2019-02-12T20:57:43.294Z,68.73
2019-02-12T21:00:18.571Z,68.57
2019-02-12T21:02:49.236Z,68.73
2019-02-12T21:05:20.021Z,68.58
2019-02-12T21:07:51.036Z,68.47
2019-02-12T21:10:21.943Z,68.55
2019-02-12T21:12:53.356Z,68.48
2019-02-12T21:15:27.165Z,68.67
2019-02-12T21:17:57.619Z,68.44
2019-02-12T21:20:28.092Z,68.45
2019-02-12T21:22:58.437Z,68.38
2019-02-12T21:25:28.896Z,68.34
2019-02-12T21:27:59.536Z,68.13
2019-02-12T21:30:29.992Z,68.05
2019-02-12T21:33:00.986Z,68.08
2019-02-12T21:35:31.936Z,68.08
2019-02-12T21:38:05.108Z,68.03
2019-02-12T21:40:35.411Z,68.02
2019-02-12T21:43:07.201Z,68.20
2019-02-12T21:45:37.657Z,68.30
2019-02-12T21:48:08.035Z,68.27
2019-02-12T21:50:42.980Z,68.32
2019-02-12T21:53:13.421Z,68.71
2019-02-12T21:55:45.458Z,68.59
2019-02-12T21:58:16.050Z,68.62
2019-02-12T22:00:46.970Z,68.76
2019-02-12T22:03:17.285Z,69.20
2019-02-12T22:05:47.644Z,69.08
2019-02-12T22:08:19.205Z,69.14
2019-02-12T22:10:49.953Z,69.29
2019-02-12T22:13:20.431Z,69.33
2019-02-12T22:15:50.933Z,69.40
2019-02-12T22:18:21.297Z,69.41
2019-02-12T22:20:52.216Z,69.23
2019-02-12T22:23:24.512Z,69.36
2019-02-12T22:25:54.925Z,69.40
2019-02-12T22:28:25.401Z,69.35
2019-02-12T22:30:55.840Z,69.31
2019-02-12T22:33:26.274Z,69.21
2019-02-12T22:35:56.641Z,69.42
2019-02-12T22:38:27.121Z,69.81
2019-02-12T22:40:59.298Z,69.81
2019-02-12T22:43:31.236Z,69.77
2019-02-12T22:46:01.717Z,69.77
2019-02-12T22:48:32.102Z,69.73
2019-02-12T22:51:02.484Z,69.60
2019-02-12T22:53:32.986Z,69.87
2019-02-12T22:56:04.391Z,69.92
2019-02-12T22:58:35.177Z,69.83
2019-02-12T23:01:09.682Z,70.00
2019-02-12T23:03:40.078Z,69.98
2019-02-12T23:06:12.298Z,70.03
2019-02-12T23:08:44.525Z,70.02
2019-02-12T23:11:15.378Z,70.32
2019-02-12T23:13:45.759Z,70.59
2019-02-12T23:16:17.269Z,70.56
2019-02-12T23:18:47.554Z,70.53
2019-02-12T23:21:17.974Z,70.37
2019-02-12T23:23:48.340Z,70.47
2019-02-12T23:26:18.829Z,70.45
2019-02-12T23:28:49.543Z,70.37
2019-02-12T23:31:20.055Z,70.76
2019-02-12T23:33:50.613Z,70.66
2019-02-12T23:36:22.692Z,70.76
2019-02-12T23:38:53.034Z,70.83
2019-02-12T23:41:23.384Z,70.55
2019-02-12T23:43:53.868Z,70.89
2019-02-12T23:46:29.208Z,70.83
2019-02-12T23:48:59.536Z,70.85
2019-02-12T23:51:30.067Z,70.90
2019-02-12T23:54:00.429Z,70.72
2019-02-12T23:56:30.895Z,70.88
2019-02-12T23:59:01.368Z,70.83
